sensor_id;sensor_type;location;lat;lon;timestamp;P1;durP1;ratioP1;P2;durP2;ratioP2
60502;SDS011;51448;51.660;5.824;2023-02-07T00:01:31;42.63;;;20.75;;
60502;SDS011;51448;51.660;5.824;2023-02-07T00:04:01;45.72;;;20.95;;
60502;SDS011;51448;51.660;5.824;2023-02-07T00:06:30;40.22;;;19.17;;
60502;SDS011;51448;51.660;5.824;2023-02-07T00:09:03;39.72;;;21.45;;
60502;SDS011;51448;51.660;5.824;2023-02-07T00:11:34;44.67;;;21.15;;
60502;SDS011;51448;51.660;5.824;2023-02-07T00:14:07;48.97;;;22.20;;
60502;SDS011;51448;51.660;5.824;2023-02-07T00:19:07;48.33;;;21.92;;
60502;SDS011;51448;51.660;5.824;2023-02-07T00:21:35;45.92;;;22.90;;
60502;SDS011;51448;51.660;5.824;2023-02-07T00:24:03;46.38;;;23.02;;
60502;SDS011;51448;51.660;5.824;2023-02-07T00:26:31;46.92;;;24.50;;
60502;SDS011;51448;51.660;5.824;2023-02-07T00:28:58;57.20;;;24.77;;
60502;SDS011;51448;51.660;5.824;2023-02-07T00:31:27;47.10;;;22.92;;
60502;SDS011;51448;51.660;5.824;2023-02-07T00:34:03;44.92;;;23.17;;
60502;SDS011;51448;51.660;5.824;2023-02-07T00:36:33;41.70;;;21.57;;
60502;SDS011;51448;51.660;5.824;2023-02-07T00:39:06;54.78;;;23.75;;
60502;SDS011;51448;51.660;5.824;2023-02-07T00:41:39;53.85;;;24.77;;
60502;SDS011;51448;51.660;5.824;2023-02-07T00:44:07;44.75;;;22.13;;
60502;SDS011;51448;51.660;5.824;2023-02-07T00:46:36;48.83;;;23.48;;
60502;SDS011;51448;51.660;5.824;2023-02-07T00:49:05;51.28;;;23.08;;
60502;SDS011;51448;51.660;5.824;2023-02-07T00:51:33;46.10;;;21.80;;
60502;SDS011;51448;51.660;5.824;2023-02-07T00:54:01;47.08;;;22.33;;
60502;SDS011;51448;51.660;5.824;2023-02-07T00:56:29;49.28;;;23.10;;
60502;SDS011;51448;51.660;5.824;2023-02-07T00:58:58;57.55;;;24.90;;
60502;SDS011;51448;51.660;5.824;2023-02-07T01:01:27;45.00;;;23.30;;
60502;SDS011;51448;51.660;5.824;2023-02-07T01:03:56;44.50;;;22.65;;
60502;SDS011;51448;51.660;5.824;2023-02-07T01:06:23;41.35;;;21.58;;
60502;SDS011;51448;51.660;5.824;2023-02-07T01:08:54;44.00;;;21.42;;
60502;SDS011;51448;51.660;5.824;2023-02-07T01:11:25;42.95;;;21.75;;
60502;SDS011;51448;51.660;5.824;2023-02-07T01:13:54;40.75;;;19.45;;
60502;SDS011;51448;51.660;5.824;2023-02-07T01:16:26;45.75;;;21.70;;
60502;SDS011;51448;51.660;5.824;2023-02-07T01:19:01;40.05;;;20.63;;
60502;SDS011;51448;51.660;5.824;2023-02-07T01:21:33;42.95;;;21.48;;
60502;SDS011;51448;51.660;5.824;2023-02-07T01:24:03;43.13;;;22.02;;
60502;SDS011;51448;51.660;5.824;2023-02-07T01:26:34;52.15;;;23.25;;
60502;SDS011;51448;51.660;5.824;2023-02-07T01:29:04;44.00;;;21.58;;
60502;SDS011;51448;51.660;5.824;2023-02-07T01:31:34;46.00;;;22.05;;
60502;SDS011;51448;51.660;5.824;2023-02-07T01:34:03;44.65;;;20.55;;
60502;SDS011;51448;51.660;5.824;2023-02-07T01:36:32;46.55;;;21.67;;
60502;SDS011;51448;51.660;5.824;2023-02-07T01:39:00;39.58;;;20.80;;
60502;SDS011;51448;51.660;5.824;2023-02-07T01:41:33;44.53;;;21.25;;
60502;SDS011;51448;51.660;5.824;2023-02-07T01:44:03;47.38;;;21.98;;
60502;SDS011;51448;51.660;5.824;2023-02-07T01:46:35;43.90;;;21.98;;
60502;SDS011;51448;51.660;5.824;2023-02-07T01:49:07;46.00;;;22.42;;
60502;SDS011;51448;51.660;5.824;2023-02-07T01:51:43;42.90;;;21.42;;
60502;SDS011;51448;51.660;5.824;2023-02-07T01:54:15;51.22;;;21.98;;
60502;SDS011;51448;51.660;5.824;2023-02-07T01:56:53;47.90;;;22.35;;
60502;SDS011;51448;51.660;5.824;2023-02-07T01:59:24;44.17;;;21.60;;
60502;SDS011;51448;51.660;5.824;2023-02-07T02:01:55;45.35;;;22.05;;
60502;SDS011;51448;51.660;5.824;2023-02-07T02:04:33;47.60;;;21.13;;
60502;SDS011;51448;51.660;5.824;2023-02-07T02:07:01;48.38;;;21.15;;
60502;SDS011;51448;51.660;5.824;2023-02-07T02:09:31;46.42;;;21.80;;
60502;SDS011;51448;51.660;5.824;2023-02-07T02:12:10;41.17;;;21.23;;
60502;SDS011;51448;51.660;5.824;2023-02-07T02:15:18;54.17;;;24.42;;
60502;SDS011;51448;51.660;5.824;2023-02-07T02:18:18;42.50;;;20.35;;
60502;SDS011;51448;51.660;5.824;2023-02-07T02:24:42;49.03;;;23.73;;
60502;SDS011;51448;51.660;5.824;2023-02-07T02:30:49;44.28;;;21.90;;
60502;SDS011;51448;51.660;5.824;2023-02-07T02:39:40;50.80;;;21.45;;
60502;SDS011;51448;51.660;5.824;2023-02-07T02:45:21;44.70;;;22.95;;
60502;SDS011;51448;51.660;5.824;2023-02-07T02:47:56;45.53;;;22.77;;
60502;SDS011;51448;51.660;5.824;2023-02-07T02:50:26;48.22;;;23.10;;
60502;SDS011;51448;51.660;5.824;2023-02-07T02:52:57;55.17;;;25.05;;
60502;SDS011;51448;51.660;5.824;2023-02-07T02:58:31;45.70;;;22.35;;
60502;SDS011;51448;51.660;5.824;2023-02-07T03:19:34;44.13;;;24.95;;
60502;SDS011;51448;51.660;5.824;2023-02-07T03:22:28;47.60;;;24.60;;
60502;SDS011;51448;51.660;5.824;2023-02-07T03:24:59;57.77;;;27.33;;
60502;SDS011;51448;51.660;5.824;2023-02-07T03:27:32;69.38;;;26.55;;
60502;SDS011;51448;51.660;5.824;2023-02-07T03:30:04;121.90;;;25.47;;
60502;SDS011;51448;51.660;5.824;2023-02-07T03:32:38;34.95;;;20.63;;
60502;SDS011;51448;51.660;5.824;2023-02-07T03:38:07;52.13;;;24.33;;
60502;SDS011;51448;51.660;5.824;2023-02-07T03:40:39;50.88;;;25.67;;
60502;SDS011;51448;51.660;5.824;2023-02-07T03:43:17;52.00;;;25.10;;
60502;SDS011;51448;51.660;5.824;2023-02-07T03:45:51;61.53;;;27.02;;
60502;SDS011;51448;51.660;5.824;2023-02-07T03:48:19;45.33;;;25.13;;
60502;SDS011;51448;51.660;5.824;2023-02-07T03:50:46;47.90;;;25.58;;
60502;SDS011;51448;51.660;5.824;2023-02-07T03:53:16;46.65;;;24.70;;
60502;SDS011;51448;51.660;5.824;2023-02-07T03:55:44;111.43;;;27.90;;
60502;SDS011;51448;51.660;5.824;2023-02-07T03:58:11;67.80;;;28.73;;
60502;SDS011;51448;51.660;5.824;2023-02-07T04:00:39;44.38;;;26.27;;
60502;SDS011;51448;51.660;5.824;2023-02-07T04:03:07;127.80;;;30.15;;
60502;SDS011;51448;51.660;5.824;2023-02-07T04:05:35;358.40;;;31.75;;
60502;SDS011;51448;51.660;5.824;2023-02-07T04:08:03;660.08;;;48.70;;
60502;SDS011;51448;51.660;5.824;2023-02-07T04:10:30;215.25;;;31.67;;
60502;SDS011;51448;51.660;5.824;2023-02-07T04:12:58;48.22;;;27.27;;
60502;SDS011;51448;51.660;5.824;2023-02-07T04:15:26;161.70;;;29.25;;
60502;SDS011;51448;51.660;5.824;2023-02-07T04:17:53;47.28;;;26.45;;
60502;SDS011;51448;51.660;5.824;2023-02-07T04:20:21;126.60;;;26.48;;
60502;SDS011;51448;51.660;5.824;2023-02-07T04:22:48;102.80;;;27.25;;
60502;SDS011;51448;51.660;5.824;2023-02-07T04:25:16;88.03;;;31.80;;
60502;SDS011;51448;51.660;5.824;2023-02-07T04:27:44;158.73;;;32.72;;
60502;SDS011;51448;51.660;5.824;2023-02-07T04:30:12;110.70;;;33.20;;
60502;SDS011;51448;51.660;5.824;2023-02-07T04:32:40;96.78;;;28.92;;
60502;SDS011;51448;51.660;5.824;2023-02-07T04:35:07;93.85;;;33.08;;
60502;SDS011;51448;51.660;5.824;2023-02-07T04:37:35;98.97;;;35.03;;
60502;SDS011;51448;51.660;5.824;2023-02-07T04:40:02;127.55;;;34.75;;
60502;SDS011;51448;51.660;5.824;2023-02-07T04:42:30;116.28;;;34.42;;
60502;SDS011;51448;51.660;5.824;2023-02-07T04:44:58;323.85;;;40.60;;
60502;SDS011;51448;51.660;5.824;2023-02-07T04:47:26;538.00;;;47.58;;
60502;SDS011;51448;51.660;5.824;2023-02-07T04:49:54;346.58;;;37.25;;
60502;SDS011;51448;51.660;5.824;2023-02-07T04:52:22;202.23;;;37.70;;
60502;SDS011;51448;51.660;5.824;2023-02-07T04:54:49;151.05;;;41.65;;
60502;SDS011;51448;51.660;5.824;2023-02-07T04:57:17;100.95;;;39.05;;
60502;SDS011;51448;51.660;5.824;2023-02-07T04:59:45;181.45;;;44.25;;
60502;SDS011;51448;51.660;5.824;2023-02-07T05:02:12;86.47;;;39.17;;
60502;SDS011;51448;51.660;5.824;2023-02-07T05:04:40;257.55;;;49.03;;
60502;SDS011;51448;51.660;5.824;2023-02-07T05:07:08;517.95;;;57.45;;
60502;SDS011;51448;51.660;5.824;2023-02-07T05:09:35;428.50;;;52.60;;
60502;SDS011;51448;51.660;5.824;2023-02-07T05:12:03;274.50;;;49.28;;
60502;SDS011;51448;51.660;5.824;2023-02-07T05:14:30;100.85;;;39.38;;
60502;SDS011;51448;51.660;5.824;2023-02-07T05:16:58;95.47;;;42.28;;
60502;SDS011;51448;51.660;5.824;2023-02-07T05:19:25;107.53;;;43.55;;
60502;SDS011;51448;51.660;5.824;2023-02-07T05:21:53;187.07;;;44.90;;
60502;SDS011;51448;51.660;5.824;2023-02-07T05:24:21;296.90;;;51.90;;
60502;SDS011;51448;51.660;5.824;2023-02-07T05:26:48;147.90;;;49.25;;
60502;SDS011;51448;51.660;5.824;2023-02-07T05:29:16;121.43;;;48.67;;
60502;SDS011;51448;51.660;5.824;2023-02-07T05:31:44;135.85;;;46.95;;
60502;SDS011;51448;51.660;5.824;2023-02-07T05:34:33;394.85;;;52.40;;
60502;SDS011;51448;51.660;5.824;2023-02-07T05:37:00;193.32;;;45.53;;
60502;SDS011;51448;51.660;5.824;2023-02-07T05:39:28;221.82;;;46.88;;
60502;SDS011;51448;51.660;5.824;2023-02-07T05:41:56;189.45;;;46.63;;
60502;SDS011;51448;51.660;5.824;2023-02-07T05:44:24;182.45;;;45.50;;
60502;SDS011;51448;51.660;5.824;2023-02-07T05:46:51;579.17;;;65.25;;
60502;SDS011;51448;51.660;5.824;2023-02-07T05:49:19;478.00;;;54.67;;
60502;SDS011;51448;51.660;5.824;2023-02-07T05:51:46;279.83;;;47.42;;
60502;SDS011;51448;51.660;5.824;2023-02-07T05:54:14;397.75;;;48.60;;
60502;SDS011;51448;51.660;5.824;2023-02-07T05:56:42;371.65;;;49.40;;
60502;SDS011;51448;51.660;5.824;2023-02-07T05:59:09;104.45;;;38.28;;
60502;SDS011;51448;51.660;5.824;2023-02-07T06:01:38;285.52;;;46.15;;
60502;SDS011;51448;51.660;5.824;2023-02-07T06:04:06;193.05;;;45.33;;
60502;SDS011;51448;51.660;5.824;2023-02-07T06:06:33;528.63;;;56.67;;
60502;SDS011;51448;51.660;5.824;2023-02-07T06:09:01;249.07;;;43.75;;
60502;SDS011;51448;51.660;5.824;2023-02-07T06:11:29;460.40;;;54.33;;
60502;SDS011;51448;51.660;5.824;2023-02-07T06:13:57;368.00;;;47.35;;
60502;SDS011;51448;51.660;5.824;2023-02-07T06:16:25;348.73;;;52.92;;
60502;SDS011;51448;51.660;5.824;2023-02-07T06:18:52;493.55;;;59.15;;
60502;SDS011;51448;51.660;5.824;2023-02-07T06:21:20;524.35;;;60.60;;
60502;SDS011;51448;51.660;5.824;2023-02-07T06:23:48;378.35;;;49.95;;
60502;SDS011;51448;51.660;5.824;2023-02-07T06:26:17;592.90;;;63.33;;
60502;SDS011;51448;51.660;5.824;2023-02-07T06:28:45;339.02;;;47.15;;
60502;SDS011;51448;51.660;5.824;2023-02-07T06:31:13;385.17;;;53.45;;
60502;SDS011;51448;51.660;5.824;2023-02-07T06:33:41;196.77;;;42.13;;
60502;SDS011;51448;51.660;5.824;2023-02-07T06:36:08;206.75;;;43.97;;
60502;SDS011;51448;51.660;5.824;2023-02-07T06:38:36;374.67;;;48.03;;
60502;SDS011;51448;51.660;5.824;2023-02-07T06:41:04;516.45;;;56.13;;
60502;SDS011;51448;51.660;5.824;2023-02-07T06:43:34;185.23;;;39.92;;
60502;SDS011;51448;51.660;5.824;2023-02-07T06:46:01;105.30;;;38.28;;
60502;SDS011;51448;51.660;5.824;2023-02-07T06:48:30;299.58;;;46.80;;
60502;SDS011;51448;51.660;5.824;2023-02-07T06:50:59;256.73;;;43.63;;
60502;SDS011;51448;51.660;5.824;2023-02-07T06:53:26;422.25;;;53.08;;
60502;SDS011;51448;51.660;5.824;2023-02-07T06:55:55;371.40;;;45.60;;
60502;SDS011;51448;51.660;5.824;2023-02-07T06:58:23;369.98;;;55.88;;
60502;SDS011;51448;51.660;5.824;2023-02-07T07:00:50;442.15;;;62.40;;
60502;SDS011;51448;51.660;5.824;2023-02-07T07:03:18;162.45;;;39.60;;
60502;SDS011;51448;51.660;5.824;2023-02-07T07:05:47;390.48;;;51.10;;
60502;SDS011;51448;51.660;5.824;2023-02-07T07:08:15;276.77;;;47.00;;
60502;SDS011;51448;51.660;5.824;2023-02-07T07:10:44;310.52;;;46.75;;
60502;SDS011;51448;51.660;5.824;2023-02-07T07:13:12;348.58;;;58.58;;
60502;SDS011;51448;51.660;5.824;2023-02-07T07:15:40;338.17;;;49.15;;
60502;SDS011;51448;51.660;5.824;2023-02-07T07:18:07;251.65;;;42.67;;
60502;SDS011;51448;51.660;5.824;2023-02-07T07:20:35;348.20;;;48.25;;
60502;SDS011;51448;51.660;5.824;2023-02-07T07:23:03;340.50;;;50.58;;
60502;SDS011;51448;51.660;5.824;2023-02-07T07:25:30;565.22;;;71.07;;
60502;SDS011;51448;51.660;5.824;2023-02-07T07:27:58;212.82;;;45.00;;
60502;SDS011;51448;51.660;5.824;2023-02-07T07:30:25;395.95;;;53.92;;
60502;SDS011;51448;51.660;5.824;2023-02-07T07:32:54;383.40;;;56.05;;
60502;SDS011;51448;51.660;5.824;2023-02-07T07:35:21;354.05;;;56.78;;
60502;SDS011;51448;51.660;5.824;2023-02-07T07:37:50;223.20;;;48.25;;
60502;SDS011;51448;51.660;5.824;2023-02-07T07:40:18;156.45;;;46.28;;
60502;SDS011;51448;51.660;5.824;2023-02-07T07:42:46;560.50;;;74.40;;
60502;SDS011;51448;51.660;5.824;2023-02-07T07:45:34;451.67;;;62.17;;
60502;SDS011;51448;51.660;5.824;2023-02-07T07:48:01;592.33;;;81.72;;
60502;SDS011;51448;51.660;5.824;2023-02-07T07:50:29;339.63;;;60.00;;
60502;SDS011;51448;51.660;5.824;2023-02-07T07:52:57;515.55;;;74.43;;
60502;SDS011;51448;51.660;5.824;2023-02-07T07:55:25;327.55;;;63.78;;
60502;SDS011;51448;51.660;5.824;2023-02-07T07:57:52;365.50;;;58.88;;
60502;SDS011;51448;51.660;5.824;2023-02-07T08:00:20;354.02;;;66.75;;
60502;SDS011;51448;51.660;5.824;2023-02-07T08:02:48;251.55;;;60.30;;
60502;SDS011;51448;51.660;5.824;2023-02-07T08:05:16;238.52;;;48.65;;
60502;SDS011;51448;51.660;5.824;2023-02-07T08:07:43;344.70;;;56.13;;
60502;SDS011;51448;51.660;5.824;2023-02-07T08:10:11;382.20;;;54.65;;
60502;SDS011;51448;51.660;5.824;2023-02-07T08:12:39;210.00;;;54.80;;
60502;SDS011;51448;51.660;5.824;2023-02-07T08:15:09;141.23;;;49.97;;
60502;SDS011;51448;51.660;5.824;2023-02-07T08:17:37;251.40;;;49.83;;
60502;SDS011;51448;51.660;5.824;2023-02-07T08:20:05;278.45;;;54.42;;
60502;SDS011;51448;51.660;5.824;2023-02-07T08:22:33;378.88;;;54.20;;
60502;SDS011;51448;51.660;5.824;2023-02-07T08:25:01;176.27;;;45.85;;
60502;SDS011;51448;51.660;5.824;2023-02-07T08:27:29;249.82;;;49.08;;
60502;SDS011;51448;51.660;5.824;2023-02-07T08:29:56;336.73;;;50.38;;
60502;SDS011;51448;51.660;5.824;2023-02-07T08:32:24;110.00;;;45.42;;
60502;SDS011;51448;51.660;5.824;2023-02-07T08:34:52;177.93;;;42.72;;
60502;SDS011;51448;51.660;5.824;2023-02-07T08:37:19;196.20;;;47.42;;
60502;SDS011;51448;51.660;5.824;2023-02-07T08:39:49;209.05;;;50.50;;
60502;SDS011;51448;51.660;5.824;2023-02-07T08:42:19;200.40;;;51.20;;
60502;SDS011;51448;51.660;5.824;2023-02-07T08:44:48;108.97;;;45.08;;
60502;SDS011;51448;51.660;5.824;2023-02-07T08:47:16;118.22;;;45.25;;
60502;SDS011;51448;51.660;5.824;2023-02-07T08:49:45;106.72;;;43.97;;
60502;SDS011;51448;51.660;5.824;2023-02-07T08:52:12;92.68;;;45.78;;
60502;SDS011;51448;51.660;5.824;2023-02-07T08:54:40;84.75;;;43.95;;
60502;SDS011;51448;51.660;5.824;2023-02-07T08:57:08;188.88;;;47.83;;
60502;SDS011;51448;51.660;5.824;2023-02-07T08:59:35;253.25;;;49.67;;
60502;SDS011;51448;51.660;5.824;2023-02-07T09:02:03;109.78;;;46.10;;
60502;SDS011;51448;51.660;5.824;2023-02-07T09:04:31;83.00;;;44.85;;
60502;SDS011;51448;51.660;5.824;2023-02-07T09:06:58;100.10;;;47.72;;
60502;SDS011;51448;51.660;5.824;2023-02-07T09:09:26;74.00;;;43.13;;
60502;SDS011;51448;51.660;5.824;2023-02-07T09:11:53;104.18;;;42.92;;
60502;SDS011;51448;51.660;5.824;2023-02-07T09:14:21;75.72;;;42.65;;
60502;SDS011;51448;51.660;5.824;2023-02-07T09:16:48;114.57;;;40.42;;
60502;SDS011;51448;51.660;5.824;2023-02-07T09:19:16;72.07;;;38.45;;
60502;SDS011;51448;51.660;5.824;2023-02-07T09:21:44;97.18;;;41.70;;
60502;SDS011;51448;51.660;5.824;2023-02-07T09:24:12;72.28;;;40.60;;
60502;SDS011;51448;51.660;5.824;2023-02-07T09:26:40;107.72;;;41.70;;
60502;SDS011;51448;51.660;5.824;2023-02-07T09:29:09;96.63;;;41.97;;
60502;SDS011;51448;51.660;5.824;2023-02-07T09:31:40;87.75;;;42.03;;
60502;SDS011;51448;51.660;5.824;2023-02-07T09:34:09;71.78;;;42.17;;
60502;SDS011;51448;51.660;5.824;2023-02-07T09:36:37;70.28;;;42.22;;
60502;SDS011;51448;51.660;5.824;2023-02-07T09:39:05;70.03;;;41.90;;
60502;SDS011;51448;51.660;5.824;2023-02-07T09:47:16;66.15;;;41.40;;
60502;SDS011;51448;51.660;5.824;2023-02-07T09:52:48;61.25;;;37.50;;
60502;SDS011;51448;51.660;5.824;2023-02-07T09:55:22;60.55;;;39.30;;
60502;SDS011;51448;51.660;5.824;2023-02-07T09:58:12;62.30;;;37.38;;
60502;SDS011;51448;51.660;5.824;2023-02-07T10:01:08;62.05;;;39.13;;
60502;SDS011;51448;51.660;5.824;2023-02-07T10:03:50;63.05;;;37.08;;
60502;SDS011;51448;51.660;5.824;2023-02-07T10:06:28;58.28;;;36.53;;
60502;SDS011;51448;51.660;5.824;2023-02-07T10:08:56;63.67;;;37.95;;
60502;SDS011;51448;51.660;5.824;2023-02-07T10:11:31;56.53;;;35.27;;
60502;SDS011;51448;51.660;5.824;2023-02-07T10:21:04;52.03;;;32.40;;
60502;SDS011;51448;51.660;5.824;2023-02-07T10:31:58;45.50;;;30.50;;
60502;SDS011;51448;51.660;5.824;2023-02-07T10:34:38;44.92;;;29.95;;
60502;SDS011;51448;51.660;5.824;2023-02-07T10:37:14;36.38;;;24.48;;
60502;SDS011;51448;51.660;5.824;2023-02-07T10:40:03;33.03;;;23.15;;
60502;SDS011;51448;51.660;5.824;2023-02-07T10:42:39;33.92;;;22.42;;
60502;SDS011;51448;51.660;5.824;2023-02-07T10:45:13;29.15;;;20.45;;
60502;SDS011;51448;51.660;5.824;2023-02-07T10:47:44;29.55;;;21.77;;
60502;SDS011;51448;51.660;5.824;2023-02-07T10:50:16;32.88;;;22.33;;
60502;SDS011;51448;51.660;5.824;2023-02-07T10:53:07;30.13;;;19.85;;
60502;SDS011;51448;51.660;5.824;2023-02-07T10:55:37;27.85;;;18.95;;
60502;SDS011;51448;51.660;5.824;2023-02-07T10:58:21;26.48;;;18.73;;
60502;SDS011;51448;51.660;5.824;2023-02-07T11:00:51;27.90;;;18.42;;
60502;SDS011;51448;51.660;5.824;2023-02-07T11:03:21;24.63;;;16.02;;
60502;SDS011;51448;51.660;5.824;2023-02-07T11:08:21;27.38;;;19.38;;
60502;SDS011;51448;51.660;5.824;2023-02-07T11:10:52;28.55;;;18.55;;
60502;SDS011;51448;51.660;5.824;2023-02-07T11:13:24;25.80;;;17.77;;
60502;SDS011;51448;51.660;5.824;2023-02-07T11:24:23;24.88;;;16.52;;
60502;SDS011;51448;51.660;5.824;2023-02-07T11:27:01;19.92;;;13.13;;
60502;SDS011;51448;51.660;5.824;2023-02-07T11:29:46;21.23;;;15.27;;
60502;SDS011;51448;51.660;5.824;2023-02-07T11:32:25;18.80;;;13.55;;
60502;SDS011;51448;51.660;5.824;2023-02-07T11:34:58;17.38;;;12.20;;
60502;SDS011;51448;51.660;5.824;2023-02-07T11:37:35;19.88;;;13.50;;
60502;SDS011;51448;51.660;5.824;2023-02-07T11:43:05;17.88;;;12.95;;
60502;SDS011;51448;51.660;5.824;2023-02-07T11:45:42;17.48;;;12.00;;
60502;SDS011;51448;51.660;5.824;2023-02-07T11:48:18;18.10;;;12.35;;
60502;SDS011;51448;51.660;5.824;2023-02-07T11:50:54;16.42;;;11.20;;
60502;SDS011;51448;51.660;5.824;2023-02-07T11:53:59;23.00;;;13.98;;
60502;SDS011;51448;51.660;5.824;2023-02-07T11:56:26;21.38;;;13.32;;
60502;SDS011;51448;51.660;5.824;2023-02-07T11:59:03;18.70;;;11.48;;
60502;SDS011;51448;51.660;5.824;2023-02-07T12:01:41;17.80;;;12.05;;
60502;SDS011;51448;51.660;5.824;2023-02-07T12:04:18;16.92;;;11.48;;
60502;SDS011;51448;51.660;5.824;2023-02-07T12:07:07;17.23;;;12.75;;
60502;SDS011;51448;51.660;5.824;2023-02-07T12:09:45;19.70;;;13.40;;
60502;SDS011;51448;51.660;5.824;2023-02-07T12:12:22;19.92;;;13.52;;
60502;SDS011;51448;51.660;5.824;2023-02-07T12:17:59;18.42;;;13.20;;
60502;SDS011;51448;51.660;5.824;2023-02-07T12:20:45;22.80;;;13.82;;
60502;SDS011;51448;51.660;5.824;2023-02-07T12:23:51;17.25;;;12.35;;
60502;SDS011;51448;51.660;5.824;2023-02-07T12:34:46;18.33;;;12.40;;
60502;SDS011;51448;51.660;5.824;2023-02-07T12:37:24;16.83;;;11.23;;
60502;SDS011;51448;51.660;5.824;2023-02-07T12:40:09;18.20;;;12.00;;
60502;SDS011;51448;51.660;5.824;2023-02-07T12:46:30;16.20;;;11.93;;
60502;SDS011;51448;51.660;5.824;2023-02-07T12:51:44;18.17;;;12.70;;
60502;SDS011;51448;51.660;5.824;2023-02-07T12:54:55;18.63;;;13.38;;
60502;SDS011;51448;51.660;5.824;2023-02-07T12:57:48;16.67;;;11.93;;
60502;SDS011;51448;51.660;5.824;2023-02-07T13:10:35;12.77;;;9.35;;
60502;SDS011;51448;51.660;5.824;2023-02-07T13:16:45;14.23;;;10.48;;
60502;SDS011;51448;51.660;5.824;2023-02-07T13:25:25;14.32;;;9.93;;
60502;SDS011;51448;51.660;5.824;2023-02-07T13:28:02;15.63;;;10.27;;
60502;SDS011;51448;51.660;5.824;2023-02-07T13:30:35;14.65;;;9.38;;
60502;SDS011;51448;51.660;5.824;2023-02-07T13:33:05;13.93;;;10.00;;
60502;SDS011;51448;51.660;5.824;2023-02-07T13:35:54;16.13;;;11.27;;
60502;SDS011;51448;51.660;5.824;2023-02-07T13:38:57;14.65;;;9.73;;
60502;SDS011;51448;51.660;5.824;2023-02-07T13:41:58;14.35;;;9.80;;
60502;SDS011;51448;51.660;5.824;2023-02-07T13:44:39;14.15;;;9.68;;
60502;SDS011;51448;51.660;5.824;2023-02-07T13:56:05;12.70;;;9.50;;
60502;SDS011;51448;51.660;5.824;2023-02-07T13:58:58;13.65;;;9.93;;
60502;SDS011;51448;51.660;5.824;2023-02-07T14:01:47;13.73;;;9.85;;
60502;SDS011;51448;51.660;5.824;2023-02-07T14:04:19;15.20;;;10.52;;
60502;SDS011;51448;51.660;5.824;2023-02-07T14:12:01;14.52;;;10.85;;
60502;SDS011;51448;51.660;5.824;2023-02-07T14:14:34;14.85;;;10.90;;
60502;SDS011;51448;51.660;5.824;2023-02-07T14:17:05;15.20;;;10.07;;
60502;SDS011;51448;51.660;5.824;2023-02-07T14:39:04;13.38;;;10.25;;
60502;SDS011;51448;51.660;5.824;2023-02-07T14:42:17;15.90;;;10.85;;
60502;SDS011;51448;51.660;5.824;2023-02-07T14:47:23;13.40;;;9.60;;
60502;SDS011;51448;51.660;5.824;2023-02-07T14:49:56;12.73;;;9.50;;
60502;SDS011;51448;51.660;5.824;2023-02-07T14:52:30;15.80;;;10.10;;
60502;SDS011;51448;51.660;5.824;2023-02-07T14:55:13;12.90;;;9.48;;
60502;SDS011;51448;51.660;5.824;2023-02-07T15:03:15;13.52;;;10.05;;
60502;SDS011;51448;51.660;5.824;2023-02-07T15:05:53;13.27;;;9.65;;
60502;SDS011;51448;51.660;5.824;2023-02-07T15:08:29;12.23;;;8.60;;
60502;SDS011;51448;51.660;5.824;2023-02-07T15:11:02;11.88;;;8.60;;
60502;SDS011;51448;51.660;5.824;2023-02-07T15:16:12;15.05;;;8.98;;
60502;SDS011;51448;51.660;5.824;2023-02-07T15:18:54;13.25;;;8.43;;
60502;SDS011;51448;51.660;5.824;2023-02-07T15:21:38;10.77;;;7.85;;
60502;SDS011;51448;51.660;5.824;2023-02-07T15:24:13;13.88;;;8.98;;
60502;SDS011;51448;51.660;5.824;2023-02-07T15:26:56;13.23;;;8.70;;
60502;SDS011;51448;51.660;5.824;2023-02-07T15:29:31;13.20;;;8.73;;
60502;SDS011;51448;51.660;5.824;2023-02-07T15:32:40;11.63;;;8.93;;
60502;SDS011;51448;51.660;5.824;2023-02-07T15:35:50;12.13;;;8.60;;
60502;SDS011;51448;51.660;5.824;2023-02-07T15:38:12;19.73;;;8.50;;
60502;SDS011;51448;51.660;5.824;2023-02-07T15:40:50;11.32;;;8.80;;
60502;SDS011;51448;51.660;5.824;2023-02-07T15:43:33;12.18;;;8.60;;
60502;SDS011;51448;51.660;5.824;2023-02-07T15:46:09;12.63;;;8.98;;
60502;SDS011;51448;51.660;5.824;2023-02-07T15:48:45;12.38;;;8.05;;
60502;SDS011;51448;51.660;5.824;2023-02-07T15:51:19;11.98;;;8.18;;
60502;SDS011;51448;51.660;5.824;2023-02-07T15:53:59;12.75;;;9.00;;
60502;SDS011;51448;51.660;5.824;2023-02-07T15:56:28;13.00;;;9.15;;
60502;SDS011;51448;51.660;5.824;2023-02-07T15:59:00;12.25;;;8.27;;
60502;SDS011;51448;51.660;5.824;2023-02-07T16:01:36;11.40;;;8.50;;
60502;SDS011;51448;51.660;5.824;2023-02-07T16:04:05;12.75;;;8.10;;
60502;SDS011;51448;51.660;5.824;2023-02-07T16:06:35;11.52;;;8.52;;
60502;SDS011;51448;51.660;5.824;2023-02-07T16:09:03;12.13;;;8.13;;
60502;SDS011;51448;51.660;5.824;2023-02-07T16:11:35;12.27;;;8.80;;
60502;SDS011;51448;51.660;5.824;2023-02-07T16:16:52;14.07;;;9.45;;
60502;SDS011;51448;51.660;5.824;2023-02-07T16:19:27;14.18;;;8.40;;
60502;SDS011;51448;51.660;5.824;2023-02-07T16:22:05;12.18;;;8.65;;
60502;SDS011;51448;51.660;5.824;2023-02-07T16:24:43;11.15;;;8.25;;
60502;SDS011;51448;51.660;5.824;2023-02-07T16:27:16;12.10;;;8.55;;
60502;SDS011;51448;51.660;5.824;2023-02-07T16:29:57;12.20;;;9.05;;
60502;SDS011;51448;51.660;5.824;2023-02-07T16:32:27;10.95;;;8.15;;
60502;SDS011;51448;51.660;5.824;2023-02-07T16:34:59;13.27;;;8.82;;
60502;SDS011;51448;51.660;5.824;2023-02-07T16:37:27;11.55;;;9.05;;
60502;SDS011;51448;51.660;5.824;2023-02-07T16:39:54;11.88;;;8.70;;
60502;SDS011;51448;51.660;5.824;2023-02-07T16:42:22;12.20;;;8.82;;
60502;SDS011;51448;51.660;5.824;2023-02-07T16:44:50;11.68;;;8.75;;
60502;SDS011;51448;51.660;5.824;2023-02-07T16:47:18;12.20;;;8.88;;
60502;SDS011;51448;51.660;5.824;2023-02-07T16:49:46;13.18;;;9.18;;
60502;SDS011;51448;51.660;5.824;2023-02-07T16:52:13;11.43;;;9.10;;
60502;SDS011;51448;51.660;5.824;2023-02-07T16:54:41;12.65;;;8.95;;
60502;SDS011;51448;51.660;5.824;2023-02-07T16:57:09;13.10;;;9.27;;
60502;SDS011;51448;51.660;5.824;2023-02-07T16:59:38;12.65;;;9.52;;
60502;SDS011;51448;51.660;5.824;2023-02-07T17:02:13;13.20;;;8.68;;
60502;SDS011;51448;51.660;5.824;2023-02-07T17:04:42;14.18;;;9.02;;
60502;SDS011;51448;51.660;5.824;2023-02-07T17:07:10;12.38;;;9.43;;
60502;SDS011;51448;51.660;5.824;2023-02-07T17:09:38;12.18;;;9.18;;
60502;SDS011;51448;51.660;5.824;2023-02-07T17:12:06;13.00;;;9.43;;
60502;SDS011;51448;51.660;5.824;2023-02-07T17:14:35;12.40;;;9.43;;
60502;SDS011;51448;51.660;5.824;2023-02-07T17:17:04;12.82;;;9.35;;
60502;SDS011;51448;51.660;5.824;2023-02-07T17:19:32;14.82;;;9.38;;
60502;SDS011;51448;51.660;5.824;2023-02-07T17:21:59;12.75;;;9.20;;
60502;SDS011;51448;51.660;5.824;2023-02-07T17:24:27;11.88;;;9.30;;
60502;SDS011;51448;51.660;5.824;2023-02-07T17:26:54;12.88;;;10.05;;
60502;SDS011;51448;51.660;5.824;2023-02-07T17:29:23;15.77;;;10.25;;
60502;SDS011;51448;51.660;5.824;2023-02-07T17:31:51;14.18;;;10.35;;
60502;SDS011;51448;51.660;5.824;2023-02-07T17:34:19;16.63;;;11.43;;